sensor_id;sensor_type;location;lat;lon;timestamp;P1;durP1;ratioP1;P2;durP2;ratioP2
3979;SDS011;2004;52.452;13.120;2023-02-04T00:00:31;1.97;;;0.90;;
3979;SDS011;2004;52.452;13.120;2023-02-04T00:08:26;0.70;;;0.70;;
3979;SDS011;2004;52.452;13.120;2023-02-04T00:16:18;1.33;;;1.13;;
3979;SDS011;2004;52.452;13.120;2023-02-04T00:24:09;1.40;;;1.07;;
3979;SDS011;2004;52.452;13.120;2023-02-04T00:31:59;1.37;;;1.30;;
3979;SDS011;2004;52.452;13.120;2023-02-04T00:39:50;3.57;;;1.20;;
3979;SDS011;2004;52.452;13.120;2023-02-04T00:47:40;1.63;;;1.07;;
3979;SDS011;2004;52.452;13.120;2023-02-04T00:55:30;2.97;;;0.90;;
3979;SDS011;2004;52.452;13.120;2023-02-04T01:03:21;0.80;;;0.80;;
3979;SDS011;2004;52.452;13.120;2023-02-04T01:11:12;3.57;;;1.00;;
3979;SDS011;2004;52.452;13.120;2023-02-04T01:19:02;4.00;;;1.00;;
3979;SDS011;2004;52.452;13.120;2023-02-04T01:26:53;0.90;;;0.90;;
3979;SDS011;2004;52.452;13.120;2023-02-04T01:34:44;2.10;;;1.10;;
3979;SDS011;2004;52.452;13.120;2023-02-04T01:42:35;1.80;;;0.80;;
3979;SDS011;2004;52.452;13.120;2023-02-04T01:50:26;1.27;;;1.00;;
3979;SDS011;2004;52.452;13.120;2023-02-04T01:58:17;1.63;;;0.70;;
3979;SDS011;2004;52.452;13.120;2023-02-04T02:06:08;1.27;;;0.63;;
3979;SDS011;2004;52.452;13.120;2023-02-04T02:14:00;1.80;;;1.17;;
3979;SDS011;2004;52.452;13.120;2023-02-04T02:21:52;0.87;;;0.87;;
3979;SDS011;2004;52.452;13.120;2023-02-04T02:29:49;2.00;;;0.70;;
3979;SDS011;2004;52.452;13.120;2023-02-04T02:37:40;1.00;;;0.90;;
3979;SDS011;2004;52.452;13.120;2023-02-04T02:45:31;1.70;;;0.70;;
3979;SDS011;2004;52.452;13.120;2023-02-04T02:53:22;1.40;;;1.07;;
3979;SDS011;2004;52.452;13.120;2023-02-04T03:01:13;1.57;;;0.80;;
3979;SDS011;2004;52.452;13.120;2023-02-04T03:09:04;3.77;;;1.00;;
3979;SDS011;2004;52.452;13.120;2023-02-04T03:16:55;1.93;;;0.70;;
3979;SDS011;2004;52.452;13.120;2023-02-04T03:24:47;2.47;;;0.90;;
3979;SDS011;2004;52.452;13.120;2023-02-04T03:32:38;1.83;;;0.70;;
3979;SDS011;2004;52.452;13.120;2023-02-04T03:40:30;1.30;;;0.90;;
3979;SDS011;2004;52.452;13.120;2023-02-04T03:48:21;3.90;;;0.80;;
3979;SDS011;2004;52.452;13.120;2023-02-04T03:56:11;2.27;;;0.97;;
3979;SDS011;2004;52.452;13.120;2023-02-04T04:04:02;3.20;;;0.90;;
3979;SDS011;2004;52.452;13.120;2023-02-04T04:11:52;2.20;;;0.90;;
3979;SDS011;2004;52.452;13.120;2023-02-04T04:19:43;3.90;;;1.00;;
3979;SDS011;2004;52.452;13.120;2023-02-04T04:27:33;1.43;;;0.80;;
3979;SDS011;2004;52.452;13.120;2023-02-04T04:35:24;3.43;;;0.70;;
3979;SDS011;2004;52.452;13.120;2023-02-04T04:43:15;2.40;;;0.70;;
3979;SDS011;2004;52.452;13.120;2023-02-04T04:51:06;0.90;;;0.80;;
3979;SDS011;2004;52.452;13.120;2023-02-04T04:58:58;2.10;;;1.23;;
3979;SDS011;2004;52.452;13.120;2023-02-04T05:06:50;6.70;;;0.97;;
3979;SDS011;2004;52.452;13.120;2023-02-04T05:14:40;2.60;;;1.40;;
3979;SDS011;2004;52.452;13.120;2023-02-04T05:22:31;3.40;;;1.90;;
3979;SDS011;2004;52.452;13.120;2023-02-04T05:30:21;2.93;;;1.10;;
3979;SDS011;2004;52.452;13.120;2023-02-04T05:38:12;2.60;;;0.90;;
3979;SDS011;2004;52.452;13.120;2023-02-04T05:46:02;2.30;;;0.80;;
3979;SDS011;2004;52.452;13.120;2023-02-04T05:53:54;4.03;;;1.00;;
3979;SDS011;2004;52.452;13.120;2023-02-04T06:01:45;2.33;;;1.03;;
3979;SDS011;2004;52.452;13.120;2023-02-04T06:09:35;2.00;;;0.80;;
3979;SDS011;2004;52.452;13.120;2023-02-04T06:17:25;3.90;;;0.90;;
3979;SDS011;2004;52.452;13.120;2023-02-04T06:25:16;1.10;;;1.00;;
3979;SDS011;2004;52.452;13.120;2023-02-04T06:33:07;1.03;;;0.93;;
3979;SDS011;2004;52.452;13.120;2023-02-04T06:40:58;4.00;;;1.10;;
3979;SDS011;2004;52.452;13.120;2023-02-04T06:48:48;2.30;;;0.90;;
3979;SDS011;2004;52.452;13.120;2023-02-04T06:56:39;2.27;;;0.80;;
3979;SDS011;2004;52.452;13.120;2023-02-04T07:04:29;1.60;;;0.83;;
3979;SDS011;2004;52.452;13.120;2023-02-04T07:12:20;6.93;;;0.90;;
3979;SDS011;2004;52.452;13.120;2023-02-04T07:20:11;1.87;;;1.00;;
3979;SDS011;2004;52.452;13.120;2023-02-04T07:28:01;4.73;;;1.00;;
3979;SDS011;2004;52.452;13.120;2023-02-04T07:35:54;1.57;;;1.10;;
3979;SDS011;2004;52.452;13.120;2023-02-04T07:43:45;2.00;;;1.43;;
3979;SDS011;2004;52.452;13.120;2023-02-04T07:51:35;2.20;;;1.53;;
3979;SDS011;2004;52.452;13.120;2023-02-04T07:59:26;4.33;;;1.10;;
3979;SDS011;2004;52.452;13.120;2023-02-04T08:07:16;6.30;;;1.93;;
3979;SDS011;2004;52.452;13.120;2023-02-04T08:15:07;15.70;;;1.33;;
3979;SDS011;2004;52.452;13.120;2023-02-04T08:22:58;1.60;;;0.87;;
3979;SDS011;2004;52.452;13.120;2023-02-04T08:30:48;2.63;;;1.00;;
3979;SDS011;2004;52.452;13.120;2023-02-04T08:38:39;1.80;;;0.83;;
3979;SDS011;2004;52.452;13.120;2023-02-04T08:46:30;3.10;;;1.00;;
3979;SDS011;2004;52.452;13.120;2023-02-04T08:54:20;1.67;;;0.90;;
3979;SDS011;2004;52.452;13.120;2023-02-04T09:02:12;1.73;;;0.87;;
3979;SDS011;2004;52.452;13.120;2023-02-04T09:10:02;2.83;;;1.00;;
3979;SDS011;2004;52.452;13.120;2023-02-04T09:17:53;5.70;;;1.23;;
3979;SDS011;2004;52.452;13.120;2023-02-04T09:25:50;5.60;;;1.17;;
3979;SDS011;2004;52.452;13.120;2023-02-04T09:33:40;5.10;;;1.30;;
3979;SDS011;2004;52.452;13.120;2023-02-04T09:41:34;1.90;;;0.90;;
3979;SDS011;2004;52.452;13.120;2023-02-04T09:49:27;4.50;;;1.10;;
3979;SDS011;2004;52.452;13.120;2023-02-04T09:57:19;1.03;;;0.93;;
3979;SDS011;2004;52.452;13.120;2023-02-04T10:05:15;1.00;;;0.83;;
3979;SDS011;2004;52.452;13.120;2023-02-04T10:13:15;2.67;;;0.97;;
3979;SDS011;2004;52.452;13.120;2023-02-04T10:21:21;2.20;;;1.10;;
3979;SDS011;2004;52.452;13.120;2023-02-04T10:29:18;7.90;;;1.93;;
3979;SDS011;2004;52.452;13.120;2023-02-04T10:37:11;0.60;;;0.60;;
3979;SDS011;2004;52.452;13.120;2023-02-04T10:45:20;2.40;;;0.77;;
3979;SDS011;2004;52.452;13.120;2023-02-04T10:53:16;2.40;;;0.80;;
3979;SDS011;2004;52.452;13.120;2023-02-04T11:01:27;2.10;;;1.37;;
3979;SDS011;2004;52.452;13.120;2023-02-04T11:09:18;0.90;;;0.60;;
3979;SDS011;2004;52.452;13.120;2023-02-04T11:17:18;4.67;;;0.80;;
3979;SDS011;2004;52.452;13.120;2023-02-04T11:33:36;1.47;;;0.60;;
3979;SDS011;2004;52.452;13.120;2023-02-04T11:41:28;1.80;;;0.60;;
3979;SDS011;2004;52.452;13.120;2023-02-04T11:49:20;1.37;;;0.80;;
3979;SDS011;2004;52.452;13.120;2023-02-04T11:57:12;1.70;;;0.83;;
3979;SDS011;2004;52.452;13.120;2023-02-04T12:05:10;1.03;;;0.70;;
3979;SDS011;2004;52.452;13.120;2023-02-04T12:13:11;1.50;;;0.60;;
3979;SDS011;2004;52.452;13.120;2023-02-04T12:21:05;3.50;;;0.60;;
3979;SDS011;2004;52.452;13.120;2023-02-04T12:28:56;0.90;;;0.70;;
3979;SDS011;2004;52.452;13.120;2023-02-04T12:36:49;1.60;;;0.80;;
3979;SDS011;2004;52.452;13.120;2023-02-04T12:44:39;1.73;;;0.70;;
3979;SDS011;2004;52.452;13.120;2023-02-04T12:52:29;0.60;;;0.57;;
3979;SDS011;2004;52.452;13.120;2023-02-04T13:00:20;1.03;;;0.70;;
3979;SDS011;2004;52.452;13.120;2023-02-04T13:08:11;3.23;;;0.80;;
3979;SDS011;2004;52.452;13.120;2023-02-04T13:16:01;6.33;;;5.73;;
3979;SDS011;2004;52.452;13.120;2023-02-04T13:23:52;0.70;;;0.70;;
3979;SDS011;2004;52.452;13.120;2023-02-04T13:31:43;6.23;;;1.43;;
3979;SDS011;2004;52.452;13.120;2023-02-04T13:39:33;3.50;;;0.60;;
3979;SDS011;2004;52.452;13.120;2023-02-04T13:47:24;3.23;;;0.80;;
3979;SDS011;2004;52.452;13.120;2023-02-04T13:55:14;0.50;;;0.50;;
3979;SDS011;2004;52.452;13.120;2023-02-04T14:03:05;1.90;;;0.60;;
3979;SDS011;2004;52.452;13.120;2023-02-04T14:10:55;0.90;;;0.67;;
3979;SDS011;2004;52.452;13.120;2023-02-04T14:18:46;0.80;;;0.60;;
3979;SDS011;2004;52.452;13.120;2023-02-04T14:26:37;1.00;;;0.70;;
3979;SDS011;2004;52.452;13.120;2023-02-04T14:34:27;3.20;;;0.70;;
3979;SDS011;2004;52.452;13.120;2023-02-04T14:42:17;0.50;;;0.50;;
3979;SDS011;2004;52.452;13.120;2023-02-04T14:50:10;4.30;;;0.90;;
3979;SDS011;2004;52.452;13.120;2023-02-04T14:58:03;2.07;;;1.00;;
3979;SDS011;2004;52.452;13.120;2023-02-04T15:05:54;0.50;;;0.50;;
3979;SDS011;2004;52.452;13.120;2023-02-04T15:13:44;0.83;;;0.83;;
3979;SDS011;2004;52.452;13.120;2023-02-04T15:21:35;3.23;;;0.80;;
3979;SDS011;2004;52.452;13.120;2023-02-04T15:29:26;0.97;;;0.60;;
3979;SDS011;2004;52.452;13.120;2023-02-04T15:37:19;0.87;;;0.83;;
3979;SDS011;2004;52.452;13.120;2023-02-04T15:45:09;0.80;;;0.60;;
3979;SDS011;2004;52.452;13.120;2023-02-04T15:53:00;1.27;;;0.60;;
3979;SDS011;2004;52.452;13.120;2023-02-04T16:00:51;1.23;;;0.80;;
3979;SDS011;2004;52.452;13.120;2023-02-04T16:08:41;1.27;;;0.80;;
3979;SDS011;2004;52.452;13.120;2023-02-04T16:16:32;1.10;;;1.00;;
3979;SDS011;2004;52.452;13.120;2023-02-04T16:24:22;1.63;;;1.03;;
3979;SDS011;2004;52.452;13.120;2023-02-04T16:32:13;4.20;;;1.00;;
3979;SDS011;2004;52.452;13.120;2023-02-04T16:40:04;1.23;;;1.00;;
3979;SDS011;2004;52.452;13.120;2023-02-04T16:47:55;1.23;;;0.80;;
3979;SDS011;2004;52.452;13.120;2023-02-04T16:55:46;4.10;;;1.23;;
3979;SDS011;2004;52.452;13.120;2023-02-04T17:03:37;1.47;;;1.37;;
3979;SDS011;2004;52.452;13.120;2023-02-04T17:11:27;2.27;;;2.07;;
3979;SDS011;2004;52.452;13.120;2023-02-04T17:19:18;2.00;;;1.23;;
3979;SDS011;2004;52.452;13.120;2023-02-04T17:27:09;2.07;;;1.63;;
3979;SDS011;2004;52.452;13.120;2023-02-04T17:35:00;2.63;;;2.27;;
3979;SDS011;2004;52.452;13.120;2023-02-04T17:42:50;1.93;;;1.80;;
3979;SDS011;2004;52.452;13.120;2023-02-04T17:50:41;3.93;;;3.57;;
3979;SDS011;2004;52.452;13.120;2023-02-04T17:58:32;3.30;;;2.80;;
3979;SDS011;2004;52.452;13.120;2023-02-04T18:06:25;12.10;;;7.77;;
3979;SDS011;2004;52.452;13.120;2023-02-04T18:14:23;8.10;;;5.10;;
3979;SDS011;2004;52.452;13.120;2023-02-04T18:22:16;29.30;;;14.73;;
3979;SDS011;2004;52.452;13.120;2023-02-04T18:30:16;18.03;;;8.87;;
3979;SDS011;2004;52.452;13.120;2023-02-04T18:38:14;22.87;;;14.63;;
3979;SDS011;2004;52.452;13.120;2023-02-04T18:46:22;14.47;;;10.27;;
3979;SDS011;2004;52.452;13.120;2023-02-04T18:54:24;11.20;;;8.00;;
3979;SDS011;2004;52.452;13.120;2023-02-04T19:02:30;11.90;;;6.80;;
3979;SDS011;2004;52.452;13.120;2023-02-04T19:10:32;10.80;;;7.20;;
3979;SDS011;2004;52.452;13.120;2023-02-04T19:18:28;12.60;;;6.00;;
3979;SDS011;2004;52.452;13.120;2023-02-04T19:26:27;23.57;;;16.70;;
3979;SDS011;2004;52.452;13.120;2023-02-04T19:34:30;25.63;;;14.10;;
3979;SDS011;2004;52.452;13.120;2023-02-04T19:42:33;40.63;;;22.60;;
3979;SDS011;2004;52.452;13.120;2023-02-04T19:50:30;12.50;;;7.43;;
3979;SDS011;2004;52.452;13.120;2023-02-04T19:58:24;14.73;;;8.63;;
3979;SDS011;2004;52.452;13.120;2023-02-04T20:06:27;8.13;;;5.00;;
3979;SDS011;2004;52.452;13.120;2023-02-04T20:14:25;5.47;;;2.60;;
3979;SDS011;2004;52.452;13.120;2023-02-04T20:38:10;4.13;;;2.73;;
3979;SDS011;2004;52.452;13.120;2023-02-04T20:46:05;7.00;;;3.80;;
3979;SDS011;2004;52.452;13.120;2023-02-04T20:53:56;5.83;;;2.73;;
3979;SDS011;2004;52.452;13.120;2023-02-04T21:01:49;1.83;;;1.73;;
3979;SDS011;2004;52.452;13.120;2023-02-04T21:09:40;3.50;;;2.70;;
3979;SDS011;2004;52.452;13.120;2023-02-04T21:17:30;5.17;;;2.57;;
3979;SDS011;2004;52.452;13.120;2023-02-04T21:25:21;5.43;;;2.67;;
3979;SDS011;2004;52.452;13.120;2023-02-04T21:33:12;4.20;;;2.97;;
3979;SDS011;2004;52.452;13.120;2023-02-04T21:41:05;8.37;;;3.00;;
3979;SDS011;2004;52.452;13.120;2023-02-04T21:48:56;5.33;;;3.30;;
3979;SDS011;2004;52.452;13.120;2023-02-04T21:56:48;6.10;;;4.77;;
3979;SDS011;2004;52.452;13.120;2023-02-04T22:04:39;7.30;;;6.00;;
3979;SDS011;2004;52.452;13.120;2023-02-04T22:12:32;9.63;;;5.60;;
3979;SDS011;2004;52.452;13.120;2023-02-04T22:21:17;4.67;;;4.07;;
3979;SDS011;2004;52.452;13.120;2023-02-04T22:29:17;5.97;;;4.83;;
3979;SDS011;2004;52.452;13.120;2023-02-04T22:37:19;10.27;;;4.70;;
3979;SDS011;2004;52.452;13.120;2023-02-04T22:46:27;12.60;;;4.60;;
3979;SDS011;2004;52.452;13.120;2023-02-04T22:55:15;4.97;;;4.33;;
3979;SDS011;2004;52.452;13.120;2023-02-04T23:04:05;5.93;;;5.33;;
3979;SDS011;2004;52.452;13.120;2023-02-04T23:11:56;8.13;;;6.30;;
3979;SDS011;2004;52.452;13.120;2023-02-04T23:19:47;13.63;;;6.70;;
3979;SDS011;2004;52.452;13.120;2023-02-04T23:27:37;8.40;;;5.33;;
3979;SDS011;2004;52.452;13.120;2023-02-04T23:35:28;8.93;;;5.93;;
3979;SDS011;2004;52.452;13.120;2023-02-04T23:43:18;6.53;;;4.57;;
3979;SDS011;2004;52.452;13.120;2023-02-04T23:51:09;7.77;;;5.20;;
3979;SDS011;2004;52.452;13.120;2023-02-04T23:58:59;10.40;;;6.27;;
